createdAt,value
2022-12-01T00:00:23.709Z,72.50
2022-12-01T00:01:23.691Z,73.90
2022-12-01T00:02:23.852Z,69.30
2022-12-01T00:03:23.771Z,73.80
2022-12-01T00:04:23.645Z,70.40
2022-12-01T00:05:23.637Z,72.10
2022-12-01T00:06:23.650Z,71.40
2022-12-01T00:07:23.655Z,71.00
2022-12-01T00:08:23.609Z,74.60
2022-12-01T00:09:23.599Z,76.00
2022-12-01T00:10:23.585Z,76.90
2022-12-01T00:11:23.594Z,72.90
2022-12-01T00:12:23.561Z,76.60
2022-12-01T00:13:23.551Z,77.70
2022-12-01T00:14:23.549Z,75.70
2022-12-01T00:15:23.535Z,71.70
2022-12-01T00:16:23.582Z,72.20
2022-12-01T00:17:23.522Z,75.80
2022-12-01T00:18:23.522Z,76.70
2022-12-01T00:19:23.487Z,73.30
2022-12-01T00:20:23.513Z,77.40
2022-12-01T00:21:23.485Z,75.60
2022-12-01T00:22:23.447Z,72.10
2022-12-01T00:23:23.444Z,73.90
2022-12-01T00:24:23.446Z,67.10
2022-12-01T00:25:23.445Z,79.20
2022-12-01T00:26:23.435Z,74.60
2022-12-01T00:27:23.415Z,70.90
2022-12-01T00:28:23.388Z,73.20
2022-12-01T00:29:23.374Z,75.10
2022-12-01T00:30:23.373Z,74.30
2022-12-01T00:31:23.461Z,75.00
2022-12-01T00:32:23.363Z,71.10
2022-12-01T00:33:23.336Z,72.10
2022-12-01T00:34:23.322Z,70.80
2022-12-01T00:35:23.313Z,69.10
2022-12-01T00:36:23.320Z,71.50
2022-12-01T00:37:23.312Z,65.60
2022-12-01T00:38:23.275Z,69.90
2022-12-01T00:39:23.272Z,74.60
2022-12-01T00:40:23.261Z,72.60
2022-12-01T00:41:23.268Z,71.10
2022-12-01T00:42:23.239Z,69.90
2022-12-01T00:43:23.224Z,74.30
2022-12-01T00:44:23.215Z,72.60
2022-12-01T00:45:23.200Z,69.20
2022-12-01T00:46:23.264Z,71.30
2022-12-01T00:47:23.193Z,76.40
2022-12-01T00:48:23.191Z,67.90
2022-12-01T00:49:23.167Z,74.00
2022-12-01T00:50:23.158Z,72.40
2022-12-01T00:51:23.158Z,74.60
2022-12-01T00:52:23.127Z,75.60
2022-12-01T00:53:23.130Z,67.40
2022-12-01T00:54:23.104Z,69.90
2022-12-01T00:55:23.120Z,67.20
2022-12-01T00:56:23.102Z,70.90
2022-12-01T00:57:23.081Z,71.10
2022-12-01T00:58:23.053Z,75.60
2022-12-01T00:59:23.080Z,75.70
2022-12-01T01:00:23.043Z,73.30
2022-12-01T01:01:23.136Z,72.00
2022-12-01T01:02:23.057Z,68.00
2022-12-01T01:03:23.040Z,70.70
2022-12-01T01:04:23.006Z,69.80
2022-12-01T01:05:22.994Z,66.40
2022-12-01T01:06:22.981Z,72.30
2022-12-01T01:07:23.037Z,70.30
2022-12-01T01:08:22.965Z,76.30
2022-12-01T01:09:22.948Z,70.80
2022-12-01T01:10:22.936Z,66.20
2022-12-01T01:11:22.927Z,73.50
2022-12-01T01:12:22.935Z,70.60
2022-12-01T01:13:22.896Z,74.10
2022-12-01T01:14:22.890Z,72.70
2022-12-01T01:15:22.877Z,72.60
2022-12-01T01:16:22.935Z,74.20
2022-12-01T01:17:22.884Z,72.80
2022-12-01T01:18:22.870Z,72.30
2022-12-01T01:19:22.841Z,69.50
2022-12-01T01:20:22.858Z,68.80
2022-12-01T01:21:22.807Z,68.20
2022-12-01T01:22:22.828Z,70.70
2022-12-01T01:23:22.786Z,72.70
2022-12-01T01:24:22.778Z,72.90
2022-12-01T01:25:22.778Z,65.60
2022-12-01T01:26:22.751Z,66.90
2022-12-01T01:27:22.789Z,70.50
2022-12-01T01:28:22.738Z,67.30
2022-12-01T01:29:22.726Z,73.10
2022-12-01T01:30:22.832Z,69.40
2022-12-01T01:31:22.784Z,71.90
2022-12-01T01:32:22.711Z,68.30
2022-12-01T01:33:22.691Z,75.00
2022-12-01T01:34:24.342Z,75.10
2022-12-01T01:35:22.703Z,70.70
2022-12-01T01:36:22.646Z,69.20
2022-12-01T01:37:22.656Z,72.20
2022-12-01T01:38:22.620Z,74.60
2022-12-01T01:39:22.637Z,73.00
2022-12-01T01:40:22.602Z,70.70
2022-12-01T01:41:22.609Z,78.50
2022-12-01T01:42:22.596Z,72.90
2022-12-01T01:43:22.580Z,69.50
2022-12-01T01:44:22.558Z,70.40
2022-12-01T01:45:22.557Z,67.30
2022-12-01T01:46:22.611Z,70.70
2022-12-01T01:47:22.543Z,68.80
2022-12-01T01:48:22.529Z,69.70
2022-12-01T01:49:22.513Z,72.60
2022-12-01T01:50:22.508Z,72.60
2022-12-01T01:51:22.509Z,72.80
2022-12-01T01:52:22.502Z,73.00
2022-12-01T01:53:22.462Z,69.40
2022-12-01T01:54:22.450Z,69.50
2022-12-01T01:55:22.716Z,73.20
2022-12-01T01:56:22.428Z,70.50
2022-12-01T01:57:22.464Z,75.30
2022-12-01T01:58:22.425Z,68.10
2022-12-01T01:59:22.411Z,72.80
2022-12-01T02:00:22.388Z,71.90
2022-12-01T02:01:22.502Z,71.00
2022-12-01T02:02:22.438Z,72.00
2022-12-01T02:03:22.353Z,68.10
2022-12-01T02:04:22.350Z,76.00
2022-12-01T02:05:22.326Z,77.60
2022-12-01T02:06:22.314Z,68.70
2022-12-01T02:07:22.346Z,75.70
2022-12-01T02:08:22.315Z,73.10
2022-12-01T02:09:22.298Z,78.70
2022-12-01T02:10:22.343Z,70.00
2022-12-01T02:11:22.280Z,71.70
2022-12-01T02:12:22.265Z,69.50
2022-12-01T02:13:22.294Z,71.40
2022-12-01T02:14:22.229Z,72.10
2022-12-01T02:15:22.233Z,71.90
2022-12-01T02:16:22.242Z,70.50
2022-12-01T02:17:22.217Z,70.20
2022-12-01T02:18:22.199Z,78.60
2022-12-01T02:19:22.189Z,68.30
2022-12-01T02:20:22.167Z,72.00
2022-12-01T02:21:22.162Z,68.40
2022-12-01T02:22:22.166Z,72.00
2022-12-01T02:23:22.134Z,76.10
2022-12-01T02:24:22.124Z,72.20
2022-12-01T02:25:22.118Z,73.90
2022-12-01T02:26:22.122Z,73.80
2022-12-01T02:27:22.122Z,72.80
2022-12-01T02:28:22.087Z,68.20
2022-12-01T02:29:22.088Z,68.90
2022-12-01T02:30:22.060Z,69.50
2022-12-01T02:31:22.143Z,72.40
2022-12-01T02:32:22.060Z,73.40
2022-12-01T02:33:22.025Z,71.50
2022-12-01T02:34:22.037Z,71.30
2022-12-01T02:35:22.012Z,63.70
2022-12-01T02:36:21.994Z,76.00
2022-12-01T02:37:22.023Z,71.50
2022-12-01T02:38:21.976Z,70.80
2022-12-01T02:39:21.961Z,74.30
2022-12-01T02:40:21.950Z,76.00
2022-12-01T02:41:21.937Z,69.00
2022-12-01T02:42:21.947Z,72.70
2022-12-01T02:43:21.916Z,74.30
2022-12-01T02:44:21.906Z,70.70
2022-12-01T02:45:21.901Z,70.90
2022-12-01T02:46:21.978Z,72.70
2022-12-01T02:47:21.895Z,76.70
2022-12-01T02:48:21.863Z,70.90
2022-12-01T02:49:21.872Z,82.70
2022-12-01T02:50:21.846Z,76.90
2022-12-01T02:51:21.832Z,77.90
2022-12-01T02:52:21.852Z,76.90
2022-12-01T02:53:21.813Z,75.80
2022-12-01T02:54:21.796Z,69.50
2022-12-01T02:55:21.786Z,72.10
2022-12-01T02:56:21.804Z,70.50
2022-12-01T02:57:21.789Z,70.50
2022-12-01T02:58:21.777Z,72.50
2022-12-01T02:59:21.743Z,74.90
2022-12-01T03:00:21.744Z,72.40
2022-12-01T03:01:21.783Z,75.70
2022-12-01T03:02:21.778Z,72.50
2022-12-01T03:03:21.693Z,76.50
2022-12-01T03:04:21.714Z,65.70
2022-12-01T03:05:21.673Z,75.30
2022-12-01T03:06:21.665Z,80.20
2022-12-01T03:07:21.712Z,72.60
2022-12-01T03:08:21.664Z,70.40
2022-12-01T03:09:21.657Z,78.10
2022-12-01T03:10:21.621Z,74.30
2022-12-01T03:11:21.615Z,73.30
2022-12-01T03:12:21.659Z,76.10
2022-12-01T03:13:21.635Z,73.80
2022-12-01T03:14:21.571Z,78.10
2022-12-01T03:15:21.589Z,74.40
2022-12-01T03:16:21.620Z,74.10
2022-12-01T03:17:21.548Z,75.20
2022-12-01T03:18:21.554Z,73.30
2022-12-01T03:19:21.528Z,76.40
2022-12-01T03:20:21.517Z,79.80
2022-12-01T03:21:21.507Z,71.20
2022-12-01T03:22:21.494Z,83.50
2022-12-01T03:23:21.497Z,76.20
2022-12-01T03:24:21.475Z,72.50
2022-12-01T03:25:21.463Z,71.60
2022-12-01T03:26:21.471Z,72.00
2022-12-01T03:27:21.438Z,79.30
2022-12-01T03:28:22.509Z,74.60
2022-12-01T03:29:21.418Z,74.50
2022-12-01T03:30:21.406Z,73.00
2022-12-01T03:31:21.442Z,73.80
2022-12-01T03:32:21.380Z,80.10
2022-12-01T03:33:21.380Z,74.50
2022-12-01T03:34:21.359Z,78.70
2022-12-01T03:35:21.352Z,72.10
2022-12-01T03:36:21.393Z,78.00
2022-12-01T03:37:21.335Z,80.00
2022-12-01T03:38:21.339Z,76.70
2022-12-01T03:39:21.338Z,78.40
2022-12-01T03:40:21.304Z,74.20
2022-12-01T03:41:21.284Z,77.80
2022-12-01T03:42:21.271Z,77.40
2022-12-01T03:43:21.288Z,79.10
2022-12-01T03:44:21.256Z,80.40
2022-12-01T03:45:21.240Z,78.10
2022-12-01T03:46:21.241Z,82.20
2022-12-01T03:47:21.233Z,80.80
2022-12-01T03:48:21.224Z,83.10
2022-12-01T03:49:21.201Z,80.50
2022-12-01T03:50:21.181Z,79.60
2022-12-01T03:51:21.171Z,77.70
2022-12-01T03:52:21.160Z,76.50
2022-12-01T03:53:21.151Z,79.10
2022-12-01T03:54:21.150Z,80.00
2022-12-01T03:55:21.128Z,81.10
2022-12-01T03:56:21.118Z,78.50
2022-12-01T03:57:21.115Z,78.10
2022-12-01T03:58:21.091Z,83.10
2022-12-01T03:59:21.108Z,75.40
2022-12-01T04:00:21.075Z,81.90
2022-12-01T04:01:21.085Z,86.60
2022-12-01T04:02:21.152Z,83.90
2022-12-01T04:03:21.062Z,83.20
2022-12-01T04:04:21.052Z,72.80
2022-12-01T04:05:25.166Z,81.50
2022-12-01T04:06:21.012Z,75.50
2022-12-01T04:07:21.068Z,76.40
2022-12-01T04:08:20.991Z,79.10
2022-12-01T04:09:21.001Z,77.50
2022-12-01T04:10:20.967Z,81.10
2022-12-01T04:11:20.971Z,80.50
2022-12-01T04:12:20.947Z,80.10
2022-12-01T04:13:20.940Z,80.60
2022-12-01T04:14:20.945Z,79.00
2022-12-01T04:15:20.914Z,81.80
2022-12-01T04:16:20.972Z,71.30
2022-12-01T04:17:20.895Z,77.40
2022-12-01T04:18:20.907Z,79.10
2022-12-01T04:19:20.893Z,84.40
2022-12-01T04:20:20.863Z,82.40
2022-12-01T04:21:20.844Z,85.10
2022-12-01T04:22:20.832Z,83.00
2022-12-01T04:23:20.830Z,82.50
2022-12-01T04:24:20.834Z,78.50
2022-12-01T04:25:20.870Z,79.30
2022-12-01T04:26:20.794Z,92.00
2022-12-01T04:27:20.791Z,91.90
2022-12-01T04:29:37.307Z,85.40
2022-12-01T04:30:38.291Z,81.90
2022-12-01T04:31:38.389Z,83.20
2022-12-01T04:32:38.269Z,85.60
2022-12-01T04:33:38.283Z,75.30
2022-12-01T04:34:38.255Z,79.80
2022-12-01T04:35:38.246Z,79.90
2022-12-01T04:36:38.243Z,80.70
2022-12-01T04:37:38.211Z,88.30
2022-12-01T04:38:38.240Z,89.20
2022-12-01T04:39:38.198Z,87.00
2022-12-01T04:40:38.181Z,82.40
2022-12-01T04:41:38.172Z,85.70
2022-12-01T04:42:38.156Z,85.70
2022-12-01T04:43:38.154Z,79.00
2022-12-01T04:44:38.170Z,84.80
2022-12-01T04:45:38.128Z,88.20
2022-12-01T04:46:38.153Z,86.30
2022-12-01T04:47:38.145Z,84.40
2022-12-01T04:48:38.088Z,87.90
2022-12-01T04:49:38.150Z,82.90
2022-12-01T04:50:38.069Z,84.80
2022-12-01T04:51:38.060Z,88.30
2022-12-01T04:52:38.057Z,88.30
2022-12-01T04:53:38.047Z,82.00
2022-12-01T04:54:38.046Z,85.60
2022-12-01T04:55:38.010Z,86.50
2022-12-01T04:56:38.002Z,81.30
2022-12-01T04:57:38.021Z,87.30
2022-12-01T04:58:37.980Z,87.60
2022-12-01T04:59:37.995Z,85.60
2022-12-01T05:00:38.004Z,88.80
2022-12-01T05:01:37.999Z,89.40
2022-12-01T05:02:37.952Z,88.70
2022-12-01T05:03:37.932Z,81.50
2022-12-01T05:04:37.933Z,85.10
2022-12-01T05:05:37.912Z,83.30
2022-12-01T05:06:37.902Z,81.90
2022-12-01T05:07:37.942Z,90.80
2022-12-01T05:08:37.891Z,85.00
2022-12-01T05:09:37.879Z,79.40
2022-12-01T05:10:37.866Z,80.10
2022-12-01T05:11:37.838Z,81.70
2022-12-01T05:12:37.827Z,85.20
2022-12-01T05:13:37.822Z,76.80
2022-12-01T05:14:37.837Z,84.40
2022-12-01T05:15:37.802Z,83.20
2022-12-01T05:16:37.854Z,79.10
2022-12-01T05:17:37.782Z,81.50
2022-12-01T05:18:37.786Z,84.80
2022-12-01T05:19:37.756Z,87.40
2022-12-01T05:20:37.749Z,78.60
2022-12-01T05:21:37.733Z,83.00
2022-12-01T05:23:04.341Z,80.80
2022-12-01T05:23:37.715Z,75.60
2022-12-01T05:24:37.709Z,86.90
2022-12-01T05:25:37.709Z,81.30
2022-12-01T05:26:37.675Z,83.20
2022-12-01T05:27:37.669Z,86.20
2022-12-01T05:28:37.680Z,86.50
2022-12-01T05:29:37.656Z,84.20
2022-12-01T05:30:37.648Z,79.80
2022-12-01T05:31:37.654Z,81.20
2022-12-01T05:32:37.612Z,76.30
2022-12-01T05:33:37.589Z,85.90
2022-12-01T05:34:37.603Z,84.80
2022-12-01T05:35:37.594Z,84.20
2022-12-01T05:36:37.582Z,82.10
2022-12-01T05:37:37.575Z,84.50
2022-12-01T05:38:37.542Z,78.90
2022-12-01T05:39:37.550Z,86.90
2022-12-01T05:40:37.520Z,81.00
2022-12-01T05:41:37.510Z,84.40
2022-12-01T05:42:37.501Z,79.70
2022-12-01T05:43:37.476Z,72.80
2022-12-01T05:44:37.493Z,84.70
2022-12-01T05:45:37.493Z,78.60
2022-12-01T05:46:37.449Z,83.80
2022-12-01T05:47:37.431Z,78.80
2022-12-01T05:48:37.435Z,76.80
2022-12-01T05:49:37.437Z,77.90
2022-12-01T05:50:37.405Z,76.10
2022-12-01T05:51:37.406Z,80.50
2022-12-01T05:52:37.381Z,83.30
2022-12-01T05:53:37.369Z,74.50
2022-12-01T05:54:37.388Z,77.30
2022-12-01T05:55:37.401Z,79.20
2022-12-01T05:56:37.337Z,82.30
2022-12-01T05:57:37.363Z,79.30
2022-12-01T05:58:37.332Z,74.00
2022-12-01T05:59:37.339Z,83.10
2022-12-01T06:00:42.255Z,75.70
2022-12-01T06:01:37.346Z,72.10
2022-12-01T06:02:37.269Z,79.10
2022-12-01T06:03:37.260Z,75.60
2022-12-01T06:04:37.269Z,77.00
2022-12-01T06:05:37.248Z,72.90
2022-12-01T06:06:37.276Z,81.20
2022-12-01T06:07:37.261Z,80.30
2022-12-01T06:08:37.235Z,81.30
2022-12-01T06:09:37.217Z,81.00
2022-12-01T06:10:37.190Z,85.90
2022-12-01T06:11:37.208Z,77.50
2022-12-01T06:12:37.161Z,85.40
2022-12-01T06:13:37.148Z,77.30
2022-12-01T06:14:37.177Z,82.20
2022-12-01T06:15:37.130Z,78.10
2022-12-01T06:16:37.171Z,78.50
2022-12-01T06:17:40.350Z,81.40
2022-12-01T06:18:37.092Z,84.20
2022-12-01T06:19:37.103Z,74.70
2022-12-01T06:20:37.107Z,71.90
2022-12-01T06:21:37.081Z,82.10
2022-12-01T06:22:37.058Z,78.90
2022-12-01T06:23:37.059Z,77.60
2022-12-01T06:24:37.063Z,74.10
2022-12-01T06:25:37.019Z,72.90
2022-12-01T06:26:37.007Z,80.80
2022-12-01T06:27:37.017Z,77.00
2022-12-01T06:28:36.987Z,79.90
2022-12-01T06:29:47.816Z,77.90
2022-12-01T06:30:36.982Z,80.40
2022-12-01T06:31:36.979Z,83.60
2022-12-01T06:32:36.944Z,83.80
2022-12-01T06:33:36.936Z,86.10
2022-12-01T06:34:36.939Z,82.40
2022-12-01T06:35:36.911Z,78.40
2022-12-01T06:36:36.913Z,78.20
2022-12-01T06:37:36.892Z,84.30
2022-12-01T06:38:36.875Z,79.00
2022-12-01T06:39:36.878Z,77.60
2022-12-01T06:40:36.875Z,84.30
2022-12-01T06:41:36.838Z,78.00
2022-12-01T06:42:36.831Z,82.30
2022-12-01T06:43:36.824Z,81.80
2022-12-01T06:44:36.846Z,79.50
2022-12-01T06:45:36.844Z,82.10
2022-12-01T06:46:36.870Z,76.90
2022-12-01T06:47:36.779Z,83.30
2022-12-01T06:48:36.774Z,73.90
2022-12-01T06:49:36.761Z,75.90
2022-12-01T06:50:36.743Z,85.10
2022-12-01T06:51:36.726Z,75.80
2022-12-01T06:52:36.716Z,83.30
2022-12-01T06:53:36.722Z,86.50
2022-12-01T06:54:36.701Z,76.90
2022-12-01T06:55:36.692Z,80.80
2022-12-01T06:56:36.674Z,76.80
2022-12-01T06:57:36.660Z,82.50
2022-12-01T06:58:36.661Z,80.70
2022-12-01T06:59:36.687Z,94.10
2022-12-01T07:00:36.651Z,80.30
2022-12-01T07:01:36.778Z,80.40
2022-12-01T07:02:36.636Z,85.90
2022-12-01T07:03:36.638Z,87.40
2022-12-01T07:04:36.603Z,93.40
2022-12-01T07:05:36.575Z,93.60
2022-12-01T07:06:36.562Z,86.80
2022-12-01T07:07:36.613Z,86.70
2022-12-01T07:08:36.545Z,86.30
2022-12-01T07:09:36.560Z,84.50
2022-12-01T07:10:36.520Z,86.90
2022-12-01T07:11:36.534Z,82.40
2022-12-01T07:12:36.499Z,88.10
2022-12-01T07:13:36.509Z,85.30
2022-12-01T07:14:36.489Z,82.70
2022-12-01T07:15:36.502Z,83.20
2022-12-01T07:16:36.529Z,86.00
2022-12-01T07:17:36.493Z,83.80
2022-12-01T07:18:36.433Z,83.00
2022-12-01T07:19:36.481Z,91.00
2022-12-01T07:20:36.418Z,80.20
2022-12-01T07:21:36.475Z,82.00
2022-12-01T07:22:36.413Z,83.00
2022-12-01T07:23:37.281Z,84.30
2022-12-01T07:24:36.391Z,88.80
2022-12-01T07:25:36.424Z,84.60
2022-12-01T07:26:36.349Z,89.10
2022-12-01T07:27:36.333Z,82.50
2022-12-01T07:28:36.324Z,88.40
2022-12-01T07:29:36.335Z,86.70
2022-12-01T07:30:36.325Z,81.10
2022-12-01T07:31:36.297Z,81.00
2022-12-01T07:32:36.282Z,83.50
2022-12-01T07:33:36.277Z,90.40
2022-12-01T07:34:36.278Z,80.20
2022-12-01T07:35:36.246Z,78.40
2022-12-01T07:36:36.233Z,83.60
2022-12-01T07:37:36.220Z,86.30
2022-12-01T07:38:36.220Z,80.80
2022-12-01T07:39:36.237Z,81.40
2022-12-01T07:40:36.177Z,87.00
2022-12-01T07:41:36.195Z,80.20
2022-12-01T07:42:36.159Z,89.00
2022-12-01T07:43:36.156Z,90.00
2022-12-01T07:44:36.179Z,83.70
2022-12-01T07:45:36.128Z,80.40
2022-12-01T07:46:36.200Z,83.60
2022-12-01T07:47:36.112Z,92.30
2022-12-01T07:48:36.103Z,78.60
2022-12-01T07:49:36.087Z,82.90
2022-12-01T07:50:36.113Z,86.70
2022-12-01T07:51:36.067Z,78.10
2022-12-01T07:52:36.054Z,81.10
2022-12-01T07:53:36.038Z,83.10
2022-12-01T07:54:36.031Z,83.20
2022-12-01T07:55:36.055Z,77.40
2022-12-01T07:56:36.009Z,82.40
2022-12-01T07:57:36.007Z,80.40
2022-12-01T07:58:36.004Z,79.80
2022-12-01T07:59:35.980Z,85.10
2022-12-01T08:00:35.992Z,79.10
2022-12-01T08:01:39.176Z,83.10
2022-12-01T08:02:36.000Z,85.70
2022-12-01T08:03:35.942Z,88.10
2022-12-01T08:04:35.919Z,82.30
2022-12-01T08:05:35.945Z,85.80
2022-12-01T08:06:35.961Z,87.40
2022-12-01T08:07:35.953Z,83.20
2022-12-01T08:08:35.878Z,87.00
2022-12-01T08:09:35.870Z,76.20
2022-12-01T08:10:35.870Z,85.40
2022-12-01T08:11:35.868Z,87.80
2022-12-01T08:12:35.825Z,84.00
2022-12-01T08:13:35.823Z,81.70
2022-12-01T08:14:35.813Z,84.90
2022-12-01T08:15:35.877Z,82.00
2022-12-01T08:16:35.785Z,89.70
2022-12-01T08:17:35.777Z,89.60
2022-12-01T08:18:35.762Z,83.30
2022-12-01T08:19:35.757Z,88.70
2022-12-01T08:20:35.762Z,87.10
2022-12-01T08:21:35.725Z,88.50
2022-12-01T08:22:35.726Z,79.40
2022-12-01T08:23:35.715Z,83.20
2022-12-01T08:24:35.701Z,90.40
2022-12-01T08:25:35.722Z,87.50
2022-12-01T08:26:35.667Z,82.50
2022-12-01T08:27:35.676Z,82.20
2022-12-01T08:28:35.654Z,79.50
2022-12-01T08:29:35.676Z,82.90
2022-12-01T08:30:35.677Z,90.20
2022-12-01T08:31:35.700Z,81.70
2022-12-01T08:32:35.621Z,84.60
2022-12-01T08:33:35.601Z,86.20
2022-12-01T08:34:35.590Z,83.20
2022-12-01T08:35:35.587Z,82.50
2022-12-01T08:36:35.580Z,89.40
2022-12-01T08:37:35.554Z,85.80
2022-12-01T08:38:35.552Z,87.40
2022-12-01T08:39:35.543Z,86.20
2022-12-01T08:40:35.547Z,86.50
2022-12-01T08:41:35.506Z,87.70
2022-12-01T08:42:35.511Z,81.00
2022-12-01T08:43:56.716Z,84.10
2022-12-01T08:44:35.498Z,89.00
2022-12-01T08:45:35.495Z,85.60
2022-12-01T08:46:35.568Z,91.30
2022-12-01T08:47:35.505Z,86.60
2022-12-01T08:48:35.433Z,83.10
2022-12-01T08:49:35.427Z,81.20
2022-12-01T08:50:35.447Z,91.20
2022-12-01T08:51:35.400Z,89.60
2022-12-01T08:52:35.410Z,92.80
2022-12-01T08:53:35.377Z,92.90
2022-12-01T08:54:35.371Z,80.40
2022-12-01T08:55:35.374Z,85.80
2022-12-01T08:56:35.343Z,83.90
2022-12-01T08:57:35.484Z,92.50
2022-12-01T08:58:35.324Z,82.70
2022-12-01T08:59:35.317Z,79.50
2022-12-01T09:00:35.321Z,86.70
2022-12-01T09:01:35.370Z,83.80
2022-12-01T09:02:35.357Z,89.20
2022-12-01T09:03:35.258Z,85.40
2022-12-01T09:04:35.257Z,79.50
2022-12-01T09:05:35.253Z,86.30
2022-12-01T09:06:35.237Z,85.40
2022-12-01T09:07:35.248Z,92.40
2022-12-01T09:08:35.209Z,84.80
2022-12-01T09:09:35.205Z,87.70
2022-12-01T09:10:35.214Z,83.70
2022-12-01T09:11:35.183Z,90.60
2022-12-01T09:12:35.168Z,82.30
2022-12-01T09:13:38.774Z,88.10
2022-12-01T09:14:35.144Z,88.00
2022-12-01T09:15:35.171Z,87.00
2022-12-01T09:16:35.141Z,81.20
2022-12-01T09:17:35.119Z,84.20
2022-12-01T09:18:35.107Z,82.10
2022-12-01T09:19:35.088Z,85.30
2022-12-01T09:20:35.103Z,87.40
2022-12-01T09:21:35.102Z,87.30
2022-12-01T09:22:35.059Z,83.20
2022-12-01T09:23:35.049Z,85.70
2022-12-01T09:24:35.029Z,90.00
2022-12-01T09:25:35.055Z,84.40
2022-12-01T09:26:35.014Z,86.60
2022-12-01T09:27:35.022Z,87.20
2022-12-01T09:28:35.003Z,85.60
2022-12-01T09:29:34.990Z,84.20
2022-12-01T09:30:34.996Z,89.30
2022-12-01T09:31:35.009Z,85.10
2022-12-01T09:32:34.979Z,90.20
2022-12-01T09:33:34.933Z,86.20
2022-12-01T09:34:34.951Z,89.00
2022-12-01T09:35:34.947Z,92.90
2022-12-01T09:36:34.907Z,84.10
2022-12-01T09:37:34.975Z,90.60
2022-12-01T09:38:34.889Z,89.10
2022-12-01T09:39:34.932Z,85.50
2022-12-01T09:40:34.866Z,86.80
2022-12-01T09:41:34.900Z,94.80
2022-12-01T09:42:35.644Z,89.90
2022-12-01T09:43:34.842Z,88.50
2022-12-01T09:44:34.818Z,93.10
2022-12-01T09:45:34.873Z,88.60
2022-12-01T09:46:34.869Z,90.50
2022-12-01T09:47:34.778Z,82.60
2022-12-01T09:48:34.770Z,90.30
2022-12-01T09:49:34.778Z,93.10
2022-12-01T09:50:34.761Z,83.30
2022-12-01T09:51:34.743Z,90.70
2022-12-01T09:52:34.726Z,91.60
2022-12-01T09:53:34.716Z,97.40
2022-12-01T09:54:34.710Z,87.80
2022-12-01T09:55:34.705Z,96.00
2022-12-01T09:56:34.685Z,86.60
2022-12-01T09:57:34.666Z,88.60
2022-12-01T09:58:34.669Z,88.40
2022-12-01T09:59:34.650Z,83.80
2022-12-01T10:00:34.740Z,89.40
2022-12-01T10:01:34.735Z,89.60
2022-12-01T10:02:34.691Z,92.70
2022-12-01T10:03:34.601Z,80.40
2022-12-01T10:04:34.624Z,90.70
2022-12-01T10:05:34.611Z,98.10
2022-12-01T10:06:34.631Z,88.70
2022-12-01T10:07:34.605Z,92.20
2022-12-01T10:08:34.552Z,88.50
2022-12-01T10:09:34.542Z,89.40
2022-12-01T10:10:34.532Z,89.80
2022-12-01T10:11:34.544Z,84.40
2022-12-01T10:12:34.505Z,88.20
2022-12-01T10:13:34.498Z,97.70
2022-12-01T10:14:34.479Z,91.70
2022-12-01T10:15:34.501Z,93.50
2022-12-01T10:16:34.525Z,85.50
2022-12-01T10:17:34.462Z,89.40
2022-12-01T10:18:34.442Z,86.40
2022-12-01T10:19:34.428Z,94.00
2022-12-01T10:20:34.433Z,91.90
2022-12-01T10:21:34.428Z,83.40
2022-12-01T10:22:34.388Z,91.70
2022-12-01T10:23:34.387Z,93.80
2022-12-01T10:24:34.370Z,88.30
2022-12-01T10:25:34.386Z,101.70
2022-12-01T10:26:34.350Z,88.00
2022-12-01T10:27:34.342Z,83.20
2022-12-01T10:28:34.362Z,88.40
2022-12-01T10:29:34.306Z,88.60
2022-12-01T10:30:34.323Z,84.60
2022-12-01T10:31:34.375Z,94.10
2022-12-01T10:32:34.278Z,94.60
2022-12-01T10:33:34.263Z,90.40
2022-12-01T10:34:34.273Z,86.40
2022-12-01T10:35:34.258Z,87.80
2022-12-01T10:36:34.239Z,97.30
2022-12-01T10:37:34.251Z,92.80
2022-12-01T10:38:34.215Z,89.20
2022-12-01T10:39:34.217Z,85.70
2022-12-01T10:40:34.226Z,87.20
2022-12-01T10:41:34.175Z,92.60
2022-12-01T10:42:34.166Z,90.80
2022-12-01T10:43:34.151Z,89.50
2022-12-01T10:44:34.149Z,87.90
2022-12-01T10:45:34.244Z,92.70
2022-12-01T10:46:34.140Z,81.60
2022-12-01T10:47:34.134Z,90.20
2022-12-01T10:48:34.108Z,101.70
2022-12-01T10:49:34.091Z,84.60
2022-12-01T10:50:34.094Z,92.00
2022-12-01T10:51:34.080Z,90.20
2022-12-01T10:52:34.055Z,88.10
2022-12-01T10:53:34.065Z,87.80
2022-12-01T10:54:34.043Z,88.60
2022-12-01T10:55:34.032Z,90.00
2022-12-01T10:56:34.028Z,89.50
2022-12-01T10:57:33.999Z,95.60
2022-12-01T10:58:33.992Z,99.00
2022-12-01T10:59:33.991Z,102.90
2022-12-01T11:00:58.675Z,89.60
2022-12-01T11:01:34.083Z,89.60
2022-12-01T11:02:34.344Z,92.50
2022-12-01T11:03:34.209Z,85.20
2022-12-01T11:04:33.924Z,93.10
2022-12-01T11:05:33.934Z,88.60
2022-12-01T11:06:33.903Z,94.20
2022-12-01T11:07:33.981Z,88.30
2022-12-01T11:08:33.873Z,89.10
2022-12-01T11:09:33.870Z,86.60
2022-12-01T11:10:33.877Z,86.60
2022-12-01T11:11:33.854Z,90.80
2022-12-01T11:12:33.838Z,87.70
2022-12-01T11:13:33.825Z,94.00
2022-12-01T11:14:33.838Z,89.70
2022-12-01T11:15:33.815Z,92.00
2022-12-01T11:16:33.854Z,91.30
2022-12-01T11:17:33.776Z,89.90
2022-12-01T11:18:33.832Z,95.90
2022-12-01T11:19:33.831Z,97.30
2022-12-01T11:20:33.893Z,94.80
2022-12-01T11:21:33.733Z,93.00
2022-12-01T11:22:33.722Z,91.80
2022-12-01T11:23:33.713Z,90.50
2022-12-01T11:24:33.704Z,93.20
2022-12-01T11:25:33.705Z,95.10
2022-12-01T11:26:33.681Z,91.00
2022-12-01T11:27:33.668Z,93.30
2022-12-01T11:28:33.669Z,97.50
2022-12-01T11:29:33.646Z,99.90
2022-12-01T11:30:33.675Z,98.30
2022-12-01T11:31:33.670Z,90.80
2022-12-01T11:32:33.611Z,100.20
2022-12-01T11:33:33.612Z,99.80
2022-12-01T11:34:33.596Z,101.00
2022-12-01T11:35:33.611Z,108.70
2022-12-01T11:36:33.584Z,110.60
2022-12-01T11:37:33.560Z,111.40
2022-12-01T11:38:33.549Z,107.50
2022-12-01T11:39:33.574Z,106.50
2022-12-01T11:40:33.542Z,100.10
2022-12-01T11:41:33.517Z,104.40
2022-12-01T11:42:33.508Z,106.00
2022-12-01T11:43:33.515Z,111.00
2022-12-01T11:45:33.584Z,106.40
2022-12-01T11:46:33.464Z,106.00
2022-12-01T11:47:33.474Z,102.00
2022-12-01T11:48:33.439Z,103.10
2022-12-01T11:49:33.428Z,99.80
2022-12-01T11:50:33.429Z,100.90
2022-12-01T11:51:33.406Z,101.00
2022-12-01T11:52:33.394Z,109.30
2022-12-01T11:53:33.418Z,103.90
2022-12-01T11:54:33.386Z,110.10
2022-12-01T11:55:33.379Z,100.80
2022-12-01T11:56:33.350Z,102.20
2022-12-01T11:57:34.803Z,92.00
2022-12-01T11:58:33.361Z,99.20
2022-12-01T11:59:33.313Z,90.90
2022-12-01T12:00:33.321Z,91.50
2022-12-01T12:01:33.297Z,94.50
2022-12-01T12:02:33.349Z,92.60
2022-12-01T12:03:33.385Z,95.00
2022-12-01T12:04:33.262Z,88.00
2022-12-01T12:05:33.262Z,93.80
2022-12-01T12:06:40.833Z,87.10
2022-12-01T12:07:33.280Z,89.40
2022-12-01T12:08:33.235Z,87.20
2022-12-01T12:09:33.359Z,87.00
2022-12-01T12:10:33.267Z,83.30
2022-12-01T12:11:33.185Z,93.30
2022-12-01T12:12:33.182Z,83.50
2022-12-01T12:13:33.151Z,88.40
2022-12-01T12:14:33.167Z,94.40
2022-12-01T12:15:33.154Z,84.10
2022-12-01T12:16:33.688Z,84.60
2022-12-01T12:17:33.250Z,83.50
2022-12-01T12:18:33.117Z,87.20
2022-12-01T12:20:06.301Z,84.50
2022-12-01T12:20:33.107Z,81.20
2022-12-01T12:21:33.081Z,80.60
2022-12-01T12:22:33.060Z,81.70
2022-12-01T12:23:33.040Z,82.90
2022-12-01T12:24:33.039Z,78.80
2022-12-01T12:25:33.045Z,85.90
2022-12-01T12:26:33.036Z,80.30
2022-12-01T12:27:33.008Z,83.90
2022-12-01T12:28:32.989Z,82.30
2022-12-01T12:29:32.984Z,73.30
2022-12-01T12:30:33.062Z,83.70
2022-12-01T12:31:32.971Z,81.40
2022-12-01T12:32:32.946Z,80.00
2022-12-01T12:33:32.973Z,86.00
2022-12-01T12:34:32.926Z,72.20
2022-12-01T12:35:32.950Z,80.50
2022-12-01T12:36:32.924Z,76.40
2022-12-01T12:37:32.899Z,76.20
2022-12-01T12:38:32.895Z,73.20
2022-12-01T12:39:32.880Z,72.10
2022-12-01T12:40:32.874Z,65.30
2022-12-01T12:41:32.862Z,78.50
2022-12-01T12:42:32.833Z,87.60
2022-12-01T12:43:32.832Z,71.40
2022-12-01T12:44:37.023Z,74.20
2022-12-01T12:45:32.818Z,77.00
2022-12-01T12:46:32.981Z,69.70
2022-12-01T12:47:32.786Z,70.30
2022-12-01T12:48:36.030Z,77.90
2022-12-01T12:49:32.766Z,62.90
2022-12-01T12:50:32.752Z,60.70
2022-12-01T12:51:32.760Z,58.90
2022-12-01T12:52:32.732Z,60.80
2022-12-01T12:53:32.723Z,57.10